Time;durP1;ratioP1;P1;durP2;ratioP2;P2;SDS_P1;SDS_P2;PMS_P1;PMS_P2;Temp;Humidity;BMP_temperature;BMP_pressure;BME280_temperature;BME280_humidity;BME280_pressure;Samples;Min_cycle;Max_cycle;Signal;HPM_P1;HPM_P2
2022/09/13 00:00:40;;;;;;;3.67;3.38;;;;;;;16.90;71.44;95366.09;4937828;29;20197;-84
2022/09/13 00:03:06;;;;;;;3.42;3.13;;;;;;;16.82;71.68;95364.56;4938325;29;20308;-85
2022/09/13 00:05:33;;;;;;;3.60;2.92;;;;;;;16.83;71.11;95362.75;4937544;29;20288;-84
2022/09/13 00:07:59;;;;;;;3.00;2.70;;;;;;;16.90;70.99;95359.06;4938771;29;20260;-84
2022/09/13 00:10:27;;;;;;;3.33;3.10;;;;;;;16.91;71.10;95358.06;4937559;29;20197;-84
2022/09/13 00:12:54;;;;;;;3.20;2.80;;;;;;;16.95;70.44;95360.19;4938184;29;20292;-84
2022/09/13 00:15:21;;;;;;;3.38;2.90;;;;;;;16.85;71.54;95361.53;4936973;28;20701;-85
2022/09/13 00:17:48;;;;;;;3.58;3.15;;;;;;;16.87;70.71;95349.09;4937997;29;20201;-85
2022/09/13 00:20:14;;;;;;;4.47;3.20;;;;;;;16.86;70.85;95347.53;4937025;29;20272;-84
2022/09/13 00:22:40;;;;;;;3.20;3.00;;;;;;;16.87;70.61;95345.72;4938270;29;20266;-85
2022/09/13 00:25:08;;;;;;;3.10;2.80;;;;;;;16.85;70.83;95339.94;4937487;28;20857;-85
2022/09/13 00:27:36;;;;;;;3.40;2.90;;;;;;;16.80;71.03;95340.59;4938492;29;20205;-85
2022/09/13 00:30:03;;;;;;;2.80;2.60;;;;;;;16.83;70.80;95340.16;4937779;29;20642;-83
2022/09/13 00:32:30;;;;;;;3.22;2.92;;;;;;;16.75;70.93;95327.44;4936566;29;20249;-85
2022/09/13 00:34:57;;;;;;;4.32;2.65;;;;;;;16.76;70.79;95320.44;4937262;28;20316;-87
2022/09/13 00:37:23;;;;;;;2.92;2.72;;;;;;;16.77;71.18;95324.63;4937365;29;20194;-86
2022/09/13 00:39:49;;;;;;;3.05;2.75;;;;;;;16.71;71.45;95323.72;4937723;29;20198;-86
2022/09/13 00:42:16;;;;;;;3.47;2.80;;;;;;;16.75;71.26;95324.06;4935074;29;20225;-85
2022/09/13 00:44:54;;;;;;;3.20;2.90;;;;;;;16.73;71.31;95326.13;4936283;28;20209;-85
2022/09/13 00:47:24;;;;;;;2.90;2.70;;;;;;;16.68;71.39;95328.56;4937235;29;20197;-85
2022/09/13 00:49:54;;;;;;;2.92;2.50;;;;;;;16.61;71.67;95331.22;4936929;29;20185;-84
2022/09/13 00:52:24;;;;;;;3.63;2.65;;;;;;;16.57;71.54;95335.25;4936591;29;20284;-86
2022/09/13 00:54:58;;;;;;;2.90;2.60;;;;;;;16.49;71.75;95332.97;4937407;28;20198;-86
2022/09/13 00:57:26;;;;;;;2.83;2.63;;;;;;;16.44;71.85;95330.25;4937058;29;20193;-88
2022/09/13 01:00:04;;;;;;;2.80;2.60;;;;;;;16.47;71.77;95333.19;4936030;29;20203;-85
2022/09/13 01:02:32;;;;;;;2.83;2.60;;;;;;;16.30;72.28;95318.44;4935573;29;20216;-86
2022/09/13 01:04:58;;;;;;;2.75;2.55;;;;;;;16.07;73.78;95319.09;4935698;28;20265;-84
2022/09/13 01:07:25;;;;;;;3.00;2.70;;;;;;;16.01;73.78;95318.13;4936226;29;20308;-85
2022/09/13 01:09:53;;;;;;;3.15;2.70;;;;;;;16.08;73.39;95305.88;4936568;29;20202;-86
2022/09/13 01:12:32;;;;;;;3.00;2.58;;;;;;;16.09;73.67;95304.88;4935444;29;20229;-85
2022/09/13 01:15:03;;;;;;;2.90;2.70;;;;;;;16.14;73.33;95299.84;4935767;28;20232;-85
2022/09/13 01:17:31;;;;;;;3.08;2.85;;;;;;;16.21;73.07;95292.72;4936041;29;20777;-84
2022/09/13 01:19:59;;;;;;;3.05;2.50;;;;;;;16.24;73.09;95283.72;4936302;29;20217;-84
2022/09/13 01:23:05;;;;;;;2.95;2.65;;;;;;;16.24;73.40;95297.50;4935962;29;20701;-85
2022/09/13 01:25:58;;;;;;;4.70;2.55;;;;;;;16.25;73.03;95293.09;4915082;28;20236;-84
2022/09/13 01:28:55;;;;;;;2.60;2.40;;;;;;;16.22;73.24;95286.53;4936513;29;20197;-84
2022/09/13 01:31:34;;;;;;;2.58;2.38;;;;;;;16.09;73.52;95291.88;4934339;29;20197;-84
2022/09/13 01:34:12;;;;;;;2.90;2.60;;;;;;;15.99;73.70;95278.59;4936955;29;20217;-84
2022/09/13 01:36:53;;;;;;;2.90;2.60;;;;;;;16.01;73.76;95292.16;4935775;28;20227;-85
2022/09/13 01:39:33;;;;;;;2.55;2.35;;;;;;;16.06;73.57;95289.72;4935822;29;20194;-85
2022/09/13 01:42:12;;;;;;;2.85;2.38;;;;;;;16.06;73.31;95279.34;4936650;29;20764;-86
2022/09/13 01:44:56;;;;;;;2.47;2.30;;;;;;;16.05;73.12;95280.34;4935738;28;20205;-86
2022/09/13 01:47:31;;;;;;;2.65;2.45;;;;;;;16.00;73.43;95280.19;4936587;29;20296;-87
2022/09/13 01:50:12;;;;;;;2.50;2.30;;;;;;;15.99;73.43;95277.81;4937073;29;20288;-86
2022/09/13 01:52:49;;;;;;;2.35;2.15;;;;;;;16.00;73.65;95290.59;4935819;29;20224;-87
2022/09/13 01:55:26;;;;;;;3.15;2.10;;;;;;;16.10;73.26;95284.91;4934472;28;20241;-86
2022/09/13 01:58:01;;;;;;;2.20;2.03;;;;;;;16.08;73.27;95274.72;4930485;29;20276;-86
2022/09/13 02:00:34;;;;;;;2.30;2.10;;;;;;;16.12;73.05;95280.28;4934400;29;20200;-83
2022/09/13 02:03:05;;;;;;;2.83;2.00;;;;;;;16.09;73.04;95286.69;4934929;29;20713;-84
2022/09/13 02:05:38;;;;;;;1.80;1.70;;;;;;;16.10;72.97;95283.09;4934024;28;20229;-84
2022/09/13 02:08:13;;;;;;;2.60;2.20;;;;;;;16.09;72.78;95278.91;4934564;29;20202;-83
2022/09/13 02:10:44;;;;;;;3.50;2.05;;;;;;;16.12;72.67;95278.47;4934209;29;20200;-84
2022/09/13 02:13:13;;;;;;;2.35;2.15;;;;;;;16.07;72.68;95274.94;4934687;29;20685;-84
2022/09/13 02:15:44;;;;;;;2.90;2.60;;;;;;;15.97;73.08;95277.25;4934341;28;20225;-84
2022/09/13 02:18:18;;;;;;;2.97;1.95;;;;;;;15.91;73.67;95283.31;4934289;29;20194;-84
2022/09/13 02:20:49;;;;;;;2.20;2.00;;;;;;;15.92;73.22;95290.09;4927976;29;20625;-85
2022/09/13 02:23:20;;;;;;;2.20;2.00;;;;;;;15.88;73.35;95285.31;4934344;29;20233;-85
2022/09/13 02:25:50;;;;;;;2.03;1.92;;;;;;;15.92;73.40;95283.09;4928173;28;20247;-85
2022/09/13 02:28:23;;;;;;;2.85;2.00;;;;;;;15.90;73.35;95285.13;4934946;29;20205;-83
2022/09/13 02:30:54;;;;;;;2.35;1.95;;;;;;;15.96;73.15;95292.06;4928764;29;20186;-83
2022/09/13 02:33:29;;;;;;;2.05;1.85;;;;;;;15.93;73.38;95294.28;4934203;29;20277;-84
2022/09/13 02:36:01;;;;;;;4.22;2.10;;;;;;;15.96;72.71;95299.03;4934105;28;20285;-85
2022/09/13 02:38:31;;;;;;;3.03;1.88;;;;;;;16.04;72.53;95296.13;4933790;29;20284;-85
2022/09/13 02:41:01;;;;;;;3.22;2.10;;;;;;;15.98;71.98;95284.00;4934282;29;20339;-84
2022/09/13 02:43:34;;;;;;;2.63;1.95;;;;;;;15.97;72.02;95288.41;4932862;29;20229;-84
2022/09/13 02:46:12;;;;;;;1.95;1.80;;;;;;;15.98;72.11;95284.81;4933658;28;20237;-85
2022/09/13 02:48:51;;;;;;;2.13;1.92;;;;;;;15.88;72.20;95285.31;4933710;29;20204;-85
2022/09/13 02:51:25;;;;;;;2.17;1.80;;;;;;;15.83;72.66;95292.16;4933546;29;20212;-84
2022/09/13 02:54:02;;;;;;;3.63;2.00;;;;;;;15.75;72.83;95295.88;4928486;29;20241;-84
2022/09/13 02:56:35;;;;;;;1.90;1.80;;;;;;;15.66;72.80;95288.56;4936330;28;20233;-84
2022/09/13 02:59:07;;;;;;;3.40;2.38;;;;;;;15.68;72.82;95295.13;4937928;29;20232;-85
2022/09/13 03:01:35;;;;;;;2.25;2.10;;;;;;;15.66;73.38;95291.94;4937024;29;20202;-85
2022/09/13 03:04:03;;;;;;;2.63;2.10;;;;;;;15.63;72.98;95294.19;4937647;29;20213;-84
2022/09/13 03:06:30;;;;;;;2.58;2.15;;;;;;;15.60;73.01;95292.00;4936835;28;20234;-84
2022/09/13 03:09:00;;;;;;;2.92;2.00;;;;;;;15.61;72.95;95299.56;4937873;29;20210;-85
2022/09/13 03:11:40;;;;;;;2.33;2.13;;;;;;;15.55;73.28;95300.41;4937430;29;20201;-84
2022/09/13 03:14:31;;;;;;;3.25;2.10;;;;;;;15.53;73.18;95297.25;4937224;29;20225;-84
2022/09/13 03:17:11;;;;;;;1.95;1.85;;;;;;;15.46;73.28;95299.09;4932490;29;20229;-84
2022/09/13 03:19:53;;;;;;;3.72;1.90;;;;;;;15.30;74.30;95310.81;4937638;29;20205;-84
2022/09/13 03:22:35;;;;;;;2.33;2.00;;;;;;;15.37;73.96;95310.75;4937323;29;20669;-85
2022/09/13 03:25:08;;;;;;;2.47;1.80;;;;;;;15.18;74.19;95309.91;4933599;28;20229;-84
2022/09/13 03:27:41;;;;;;;2.65;1.92;;;;;;;15.14;74.35;95288.78;4937690;29;20223;-84
2022/09/13 03:30:11;;;;;;;3.03;2.00;;;;;;;14.95;75.45;95292.34;4936746;29;20220;-85
2022/09/13 03:32:48;;;;;;;3.05;1.80;;;;;;;14.88;75.97;95285.59;4937737;29;20225;-84
2022/09/13 03:35:26;;;;;;;2.33;2.05;;;;;;;14.83;76.17;95286.22;4936877;28;20232;-84
2022/09/13 03:37:58;;;;;;;6.68;2.15;;;;;;;14.81;76.14;95286.47;4931730;29;20284;-85
2022/09/13 03:40:35;;;;;;;2.80;2.30;;;;;;;14.86;76.17;95270.25;4936580;29;20210;-83
2022/09/13 03:43:08;;;;;;;2.55;2.35;;;;;;;14.93;76.28;95272.81;4937642;29;20228;-84
2022/09/13 03:45:39;;;;;;;2.28;2.05;;;;;;;14.93;76.13;95285.78;4935900;28;20226;-84
2022/09/13 03:48:07;;;;;;;3.03;1.85;;;;;;;14.99;76.36;95285.72;4937186;29;20194;-84
2022/09/13 03:50:35;;;;;;;2.40;1.75;;;;;;;15.10;75.34;95287.63;4936476;29;20209;-84
2022/09/13 03:53:06;;;;;;;4.70;2.15;;;;;;;15.16;75.53;95293.78;4937027;29;20226;-84
2022/09/13 03:55:38;;;;;;;2.95;2.40;;;;;;;15.19;75.05;95301.13;4937282;28;20237;-85
2022/09/13 03:58:04;;;;;;;2.28;2.00;;;;;;;15.16;74.87;95298.97;4937801;29;20202;-84
2022/09/13 04:00:31;;;;;;;1.95;1.85;;;;;;;15.20;74.99;95294.94;4935744;29;20203;-85
2022/09/13 04:02:57;;;;;;;3.38;2.00;;;;;;;15.15;74.77;95290.38;4936323;29;20221;-87
2022/09/13 04:05:24;;;;;;;2.53;1.90;;;;;;;15.15;74.96;95289.59;4936582;28;20662;-87
2022/09/13 04:07:51;;;;;;;2.10;1.90;;;;;;;15.25;74.56;95292.50;4930694;29;20249;-87
2022/09/13 04:10:18;;;;;;;1.90;1.80;;;;;;;15.37;74.43;95295.19;4936836;29;20665;-87
2022/09/13 04:12:44;;;;;;;2.65;1.65;;;;;;;15.48;74.28;95290.09;4936819;29;20225;-86
2022/09/13 04:15:11;;;;;;;3.58;1.67;;;;;;;15.50;74.37;95285.50;4930920;28;20242;-87
2022/09/13 04:17:37;;;;;;;2.95;1.85;;;;;;;15.61;74.00;95286.59;4936045;29;20206;-84
2022/09/13 04:20:05;;;;;;;1.73;1.40;;;;;;;15.68;73.59;95282.16;4935744;29;20678;-85
2022/09/13 04:22:32;;;;;;;2.17;1.40;;;;;;;15.77;73.65;95287.88;4936585;29;20222;-85
2022/09/13 04:25:00;;;;;;;1.63;1.52;;;;;;;15.85;73.05;95279.78;4935986;29;20574;-84
2022/09/13 04:27:26;;;;;;;3.35;1.50;;;;;;;15.90;73.16;95285.13;4937314;29;20273;-84
2022/09/13 04:29:52;;;;;;;1.55;1.45;;;;;;;15.94;73.20;95285.47;4937657;29;20602;-84
2022/09/13 04:32:19;;;;;;;1.77;1.60;;;;;;;15.95;73.20;95287.88;4936789;29;20222;-86
2022/09/13 04:34:46;;;;;;;3.63;1.58;;;;;;;15.90;73.61;95282.53;4937933;28;20621;-85
2022/09/13 04:37:13;;;;;;;3.92;1.80;;;;;;;15.87;74.10;95286.34;4939386;29;20209;-85
2022/09/13 04:39:39;;;;;;;1.75;1.65;;;;;;;15.85;74.72;95293.53;4938638;29;20266;-84
2022/09/13 04:42:07;;;;;;;4.85;1.75;;;;;;;15.85;74.31;95292.75;4937540;29;20278;-84
2022/09/13 04:44:34;;;;;;;2.40;1.70;;;;;;;15.86;74.24;95295.13;4938244;29;20277;-85
2022/09/13 04:47:00;;;;;;;2.60;1.80;;;;;;;15.87;74.22;95294.13;4938491;29;20241;-84
2022/09/13 04:49:26;;;;;;;2.42;1.83;;;;;;;16.01;76.15;95291.38;4937346;29;20233;-83
2022/09/13 04:51:53;;;;;;;1.92;1.50;;;;;;;16.01;73.88;95294.75;4938693;29;20273;-87
2022/09/13 04:54:20;;;;;;;3.10;1.65;;;;;;;15.96;73.83;95299.03;4939293;29;20702;-83
2022/09/13 04:56:48;;;;;;;2.13;1.48;;;;;;;15.91;74.11;95301.50;4938559;28;20237;-84
2022/09/13 04:59:16;;;;;;;2.00;1.58;;;;;;;15.91;74.07;95302.28;4939020;29;20209;-84
2022/09/13 05:01:42;;;;;;;2.08;1.58;;;;;;;15.87;74.16;95301.13;4937093;29;20209;-84
2022/09/13 05:04:10;;;;;;;1.85;1.50;;;;;;;15.78;74.74;95303.19;4937680;29;20224;-84
2022/09/13 05:06:36;;;;;;;3.50;1.70;;;;;;;15.81;74.46;95301.97;4938892;28;20237;-85
2022/09/13 05:09:04;;;;;;;1.70;1.60;;;;;;;15.79;74.76;95298.81;4937432;29;20632;-84
2022/09/13 05:11:30;;;;;;;2.63;1.40;;;;;;;15.89;74.31;95299.09;4935905;29;20702;-83
2022/09/13 05:13:58;;;;;;;3.55;1.80;;;;;;;16.03;73.58;95299.75;4936415;29;20229;-84
2022/09/13 05:16:29;;;;;;;1.52;1.42;;;;;;;16.31;77.10;95296.63;4934410;28;20664;-86
2022/09/13 05:18:55;;;;;;;1.98;1.52;;;;;;;16.64;74.73;95301.44;4927154;29;20213;-82
2022/09/13 05:21:22;;;;;;;1.52;1.40;;;;;;;16.90;72.79;95298.47;4932084;29;20209;-87
2022/09/13 05:23:52;;;;;;;2.10;1.40;;;;;;;17.17;71.90;95307.44;4934186;29;20252;-84
2022/09/13 05:26:20;;;;;;;2.35;1.58;;;;;;;17.39;70.31;95309.50;4934925;28;20265;-84
2022/09/13 05:28:47;;;;;;;1.88;1.50;;;;;;;17.28;68.71;95316.28;4939794;29;20202;-85
2022/09/13 05:31:16;;;;;;;1.60;1.50;;;;;;;17.15;69.05;95317.28;4938579;29;20201;-84
2022/09/13 05:33:46;;;;;;;1.70;1.60;;;;;;;17.06;69.50;95323.84;4939754;29;20276;-85
2022/09/13 05:36:12;;;;;;;2.53;1.65;;;;;;;17.00;69.45;95309.09;4938913;28;20252;-85
2022/09/13 05:38:39;;;;;;;2.97;1.60;;;;;;;16.96;69.92;95314.97;4939530;29;20442;-85
2022/09/13 05:41:06;;;;;;;1.70;1.60;;;;;;;16.88;69.55;95309.09;4938319;29;20205;-85
2022/09/13 05:43:35;;;;;;;3.17;1.60;;;;;;;16.88;69.87;95306.50;4937295;29;20221;-85
2022/09/13 05:46:03;;;;;;;2.65;1.80;;;;;;;16.90;70.37;95306.25;4938782;28;20229;-84
2022/09/13 05:48:30;;;;;;;2.95;1.60;;;;;;;16.89;70.07;95300.28;4938140;29;20221;-85
2022/09/13 05:51:04;;;;;;;1.75;1.60;;;;;;;16.87;69.85;95304.09;4941430;29;20205;-84
2022/09/13 05:53:31;;;;;;;1.83;1.60;;;;;;;16.85;70.85;95308.72;4938123;29;20360;-85
2022/09/13 05:55:58;;;;;;;4.40;1.70;;;;;;;16.93;70.88;95308.44;4939990;28;20234;-86
2022/09/13 05:58:25;;;;;;;2.42;1.55;;;;;;;16.94;70.88;95307.38;4938359;29;20577;-84
2022/09/13 06:00:56;;;;;;;2.15;1.67;;;;;;;16.98;70.22;95305.94;4937707;29;20201;-85
2022/09/13 06:03:23;;;;;;;2.90;1.58;;;;;;;16.98;70.09;95316.34;4938804;29;20273;-84
2022/09/13 06:05:50;;;;;;;2.60;1.70;;;;;;;17.01;69.56;95305.50;4939049;28;20228;-85
2022/09/13 06:08:18;;;;;;;1.60;1.50;;;;;;;17.04;69.23;95306.84;4941393;29;20288;-85
2022/09/13 06:10:53;;;;;;;1.63;1.52;;;;;;;17.01;68.84;95302.09;4939284;29;20233;-85
2022/09/13 06:13:20;;;;;;;7.28;1.55;;;;;;;17.05;68.55;95305.84;4941532;29;20932;-85
2022/09/13 06:15:46;;;;;;;3.05;1.88;;;;;;;17.09;68.70;95307.78;4939685;28;20277;-84
2022/09/13 06:18:13;;;;;;;2.50;2.30;;;;;;;17.16;68.52;95320.66;4939081;29;20206;-85
2022/09/13 06:20:39;;;;;;;3.53;2.42;;;;;;;17.27;68.30;95317.31;4939383;29;20205;-85
2022/09/13 06:23:06;;;;;;;2.25;1.70;;;;;;;17.38;68.11;95313.91;4939103;29;20225;-85
2022/09/13 06:25:33;;;;;;;3.55;1.50;;;;;;;17.54;68.03;95312.44;4938878;29;20231;-83
2022/09/13 06:28:00;;;;;;;1.58;1.48;;;;;;;17.55;67.11;95306.22;4938544;29;20257;-85
2022/09/13 06:30:26;;;;;;;2.28;1.20;;;;;;;17.65;66.68;95303.09;4939919;29;20205;-85
2022/09/13 06:32:55;;;;;;;1.63;1.15;;;;;;;17.82;66.47;95309.19;4941445;29;20233;-85
2022/09/13 06:35:22;;;;;;;1.92;1.33;;;;;;;17.84;65.69;95289.72;4939943;28;20316;-85
2022/09/13 06:37:49;;;;;;;1.83;1.45;;;;;;;17.97;65.08;95299.09;4940942;29;20564;-86
2022/09/13 06:40:15;;;;;;;3.58;1.50;;;;;;;18.16;65.24;95307.56;4940505;29;20636;-85
2022/09/13 06:42:43;;;;;;;4.55;1.42;;;;;;;18.22;64.07;95302.22;4940837;29;20260;-85
2022/09/13 06:45:10;;;;;;;4.55;2.63;;;;;;;18.39;63.97;95301.50;4941441;28;20226;-85
2022/09/13 06:47:37;;;;;;;6.07;3.60;;;;;;;18.55;63.33;95301.53;4941657;29;20309;-85
2022/09/13 06:50:07;;;;;;;2.22;1.60;;;;;;;18.76;62.64;95307.16;4941671;29;20213;-84
2022/09/13 06:52:34;;;;;;;2.22;2.03;;;;;;;18.94;62.19;95302.53;4941024;29;20343;-86
2022/09/13 06:55:00;;;;;;;1.60;1.50;;;;;;;19.14;62.15;95302.06;4939747;28;20714;-86
2022/09/13 06:57:30;;;;;;;1.65;1.48;;;;;;;19.37;61.29;95302.94;4939723;29;20269;-84
2022/09/13 06:59:58;;;;;;;2.78;1.20;;;;;;;19.40;60.22;95300.66;4940715;29;20208;-85
2022/09/13 07:02:25;;;;;;;2.03;1.30;;;;;;;19.49;59.73;95307.03;4941055;29;20257;-85
2022/09/13 07:04:51;;;;;;;1.67;1.30;;;;;;;19.62;59.44;95290.31;4940195;28;20198;-84
2022/09/13 07:07:18;;;;;;;3.30;1.30;;;;;;;19.81;58.39;95283.78;4940524;29;20233;-86
2022/09/13 07:09:44;;;;;;;1.38;1.15;;;;;;;19.88;57.60;95291.41;4940550;29;20761;-86
2022/09/13 07:12:11;;;;;;;1.67;1.40;;;;;;;20.12;57.30;95292.00;4938955;29;20717;-86
2022/09/13 07:14:37;;;;;;;3.58;1.20;;;;;;;20.35;56.57;95287.31;4938196;28;20210;-86
2022/09/13 07:17:05;;;;;;;1.00;1.00;;;;;;;20.61;55.75;95300.66;4936510;29;20901;-86
2022/09/13 07:19:31;;;;;;;2.97;1.20;;;;;;;20.82;56.20;95304.28;4938187;29;20214;-85
2022/09/13 07:22:00;;;;;;;4.88;4.03;;;;;;;21.04;55.68;95305.81;4938400;29;20210;-86
2022/09/13 07:24:27;;;;;;;2.45;1.90;;;;;;;21.16;54.88;95300.44;4938065;29;20209;-85
2022/09/13 07:26:53;;;;;;;2.00;1.73;;;;;;;21.30;53.74;95296.38;4937362;28;20256;-85
2022/09/13 07:29:22;;;;;;;1.30;1.20;;;;;;;21.51;54.87;95302.56;4938162;29;20325;-86
2022/09/13 07:31:50;;;;;;;2.03;1.55;;;;;;;21.71;54.12;95302.69;4935940;29;20257;-86
2022/09/13 07:34:20;;;;;;;1.13;1.08;;;;;;;21.89;53.08;95298.06;4935708;29;20206;-86
2022/09/13 07:36:47;;;;;;;1.52;1.20;;;;;;;22.09;53.91;95279.06;4935062;28;20300;-86
2022/09/13 07:39:14;;;;;;;3.03;1.48;;;;;;;22.13;53.14;95291.38;4935895;29;20197;-86
2022/09/13 07:41:41;;;;;;;1.52;1.40;;;;;;;22.24;54.00;95292.22;4934065;29;20210;-84
2022/09/13 07:44:10;;;;;;;2.85;1.38;;;;;;;22.45;53.14;95296.50;4934703;29;20303;-84
2022/09/13 07:46:38;;;;;;;1.35;1.25;;;;;;;22.65;52.60;95301.03;4934394;28;20617;-82
2022/09/13 07:49:06;;;;;;;5.18;1.45;;;;;;;22.87;52.23;95293.75;4934939;29;20288;-86
2022/09/13 07:51:36;;;;;;;2.17;1.30;;;;;;;22.94;50.29;95309.25;4933785;29;20209;-86
2022/09/13 07:54:05;;;;;;;2.35;1.25;;;;;;;23.00;50.69;95309.00;4934078;29;20236;-86
2022/09/13 07:56:34;;;;;;;2.03;1.20;;;;;;;23.21;50.69;95303.75;4933387;28;20240;-86
2022/09/13 07:59:02;;;;;;;1.30;1.20;;;;;;;23.38;50.46;95294.56;4933020;29;20320;-88
2022/09/13 08:01:33;;;;;;;2.28;1.25;;;;;;;23.60;50.24;95296.94;4933447;29;20750;-88
2022/09/13 08:04:02;;;;;;;1.40;1.30;;;;;;;23.87;50.37;95296.63;4932582;29;20468;-86
2022/09/13 08:06:29;;;;;;;2.65;1.40;;;;;;;24.05;50.23;95290.03;4932736;29;20808;-86
2022/09/13 08:08:58;;;;;;;5.85;5.35;;;;;;;24.00;48.14;95292.66;4932775;29;20591;-86
2022/09/13 08:11:27;;;;;;;3.83;2.97;;;;;;;24.08;47.57;95297.34;4932859;29;20702;-85
2022/09/13 08:13:54;;;;;;;1.40;1.30;;;;;;;24.12;47.59;95295.75;4932834;29;20225;-87
2022/09/13 08:16:22;;;;;;;2.20;1.73;;;;;;;24.10;47.66;95297.88;4932758;28;20237;-87
2022/09/13 08:18:51;;;;;;;2.63;1.40;;;;;;;24.07;46.89;95285.25;4932738;29;20221;-87
2022/09/13 08:21:18;;;;;;;1.55;1.23;;;;;;;24.00;47.35;95282.13;4928118;29;20208;-90
2022/09/13 08:23:45;;;;;;;2.80;1.10;;;;;;;23.76;48.08;95297.69;4935223;28;20563;-89
2022/09/13 08:26:15;;;;;;;2.17;1.60;;;;;;;23.71;48.57;95297.69;4938126;29;20236;-89
2022/09/13 08:28:43;;;;;;;3.83;1.40;;;;;;;23.50;49.21;95293.50;4933245;29;20209;-88
2022/09/13 08:31:12;;;;;;;6.35;2.55;;;;;;;23.56;50.50;95293.25;4932820;29;20301;-87
2022/09/13 08:33:39;;;;;;;3.33;3.03;;;;;;;23.70;49.52;95288.25;4933366;29;20225;-87
2022/09/13 08:36:06;;;;;;;2.85;2.17;;;;;;;23.79;49.53;95288.50;4932855;28;20240;-88
2022/09/13 08:38:32;;;;;;;2.58;1.30;;;;;;;23.89;49.49;95291.09;4933779;29;20206;-86
2022/09/13 08:41:02;;;;;;;1.45;1.35;;;;;;;24.02;48.66;95293.97;4934725;29;20212;-85
2022/09/13 08:43:46;;;;;;;1.08;0.90;;;;;;;24.11;47.25;95296.81;4934590;29;20229;-85
2022/09/13 08:46:22;;;;;;;2.47;1.15;;;;;;;24.17;47.29;95297.59;4936432;28;20261;-86
2022/09/13 08:48:51;;;;;;;1.02;0.98;;;;;;;24.39;48.17;95293.59;4936084;29;20248;-87
2022/09/13 08:51:31;;;;;;;7.28;1.30;;;;;;;24.51;47.59;95284.56;4936440;29;20656;-88
2022/09/13 08:53:58;;;;;;;1.30;1.20;;;;;;;24.61;46.90;95287.16;4936651;29;20696;-85
2022/09/13 08:56:35;;;;;;;3.20;1.60;;;;;;;24.95;47.02;95280.13;4936034;28;20233;-87
2022/09/13 08:59:17;;;;;;;1.73;1.10;;;;;;;25.25;45.59;95286.22;4935033;29;20205;-87
2022/09/13 09:01:54;;;;;;;2.15;1.30;;;;;;;25.50;45.75;95285.25;4935263;29;20208;-87
2022/09/13 09:04:35;;;;;;;1.20;1.02;;;;;;;25.81;44.43;95276.00;4935363;29;20756;-85
2022/09/13 09:07:06;;;;;;;2.05;1.50;;;;;;;25.92;45.21;95274.03;4934733;29;20225;-85
2022/09/13 09:09:39;;;;;;;1.55;1.10;;;;;;;25.81;44.61;95279.41;4935845;29;20356;-86
2022/09/13 09:12:17;;;;;;;4.50;1.38;;;;;;;25.70;43.96;95277.97;4934380;29;20272;-86
2022/09/13 09:14:49;;;;;;;3.95;1.30;;;;;;;25.80;45.50;95285.75;4937055;28;20209;-86
2022/09/13 09:17:22;;;;;;;8.70;2.40;;;;;;;26.03;44.49;95281.56;4939784;29;20224;-87
2022/09/13 09:19:53;;;;;;;5.50;2.08;;;;;;;26.30;44.05;95286.31;4935843;29;20209;-87
2022/09/13 09:22:23;;;;;;;2.33;1.38;;;;;;;26.39;43.87;95283.81;4936779;29;20254;-87
2022/09/13 09:24:52;;;;;;;16.23;3.05;;;;;;;26.48;42.72;95284.75;4936743;28;20733;-86
2022/09/13 09:27:20;;;;;;;4.72;1.60;;;;;;;26.65;43.36;95271.84;4937354;29;20264;-87
2022/09/13 09:29:52;;;;;;;14.93;2.53;;;;;;;26.83;42.66;95265.78;4936892;29;20233;-87
2022/09/13 09:32:36;;;;;;;4.95;1.45;;;;;;;26.62;42.40;95263.69;4937059;29;20317;-86
2022/09/13 09:35:18;;;;;;;8.73;2.10;;;;;;;26.71;42.98;95260.16;4936882;28;20232;-86
2022/09/13 09:37:50;;;;;;;3.65;1.30;;;;;;;26.80;42.45;95261.06;4936285;29;20205;-86
2022/09/13 09:40:20;;;;;;;5.30;1.40;;;;;;;26.75;41.84;95255.06;4936264;29;20214;-87
2022/09/13 09:42:48;;;;;;;2.10;1.25;;;;;;;26.90;43.37;95254.84;4936713;29;20230;-86
2022/09/13 09:45:25;;;;;;;7.95;1.80;;;;;;;27.00;43.04;95267.16;4937319;28;20240;-87
2022/09/13 09:47:54;;;;;;;44.53;5.32;;;;;;;27.04;42.29;95271.56;4936389;29;20243;-86
2022/09/13 09:50:23;;;;;;;9.50;2.33;;;;;;;26.97;42.35;95276.44;4936614;29;20449;-87
2022/09/13 09:52:56;;;;;;;10.55;1.85;;;;;;;26.98;42.70;95275.34;4935518;29;20272;-86
2022/09/13 09:55:27;;;;;;;6.68;1.52;;;;;;;26.80;42.31;95258.41;4935953;28;20296;-87
2022/09/13 09:57:56;;;;;;;6.43;1.90;;;;;;;26.83;42.03;95249.13;4937303;29;20276;-85
2022/09/13 10:00:28;;;;;;;3.05;1.50;;;;;;;26.82;42.20;95242.28;4934695;29;20206;-88
2022/09/13 10:02:59;;;;;;;7.35;1.75;;;;;;;26.82;42.34;95244.94;4934697;29;20221;-87
2022/09/13 10:05:27;;;;;;;2.25;1.35;;;;;;;26.71;42.50;95238.22;4935765;28;20221;-87
2022/09/13 10:07:57;;;;;;;3.70;1.40;;;;;;;26.71;42.24;95230.31;4937371;29;20206;-85
2022/09/13 10:10:26;;;;;;;2.80;1.40;;;;;;;26.74;42.71;95227.88;4930324;29;20229;-88
2022/09/13 10:12:55;;;;;;;2.05;1.85;;;;;;;26.88;42.43;95227.16;4917316;29;20313;-88
2022/09/13 10:15:26;;;;;;;8.02;3.50;;;;;;;26.94;41.85;95229.44;4916651;29;20249;-88
2022/09/13 10:18:14;;;;;;;2.08;1.80;;;;;;;26.92;42.03;95231.56;4916916;29;20593;-87
2022/09/13 10:20:40;;;;;;;3.28;1.33;;;;;;;26.98;42.21;95230.44;4916112;29;20863;-88
2022/09/13 10:23:17;;;;;;;2.90;1.20;;;;;;;26.99;41.97;95224.06;4916645;29;20716;-88
2022/09/13 10:25:46;;;;;;;3.08;1.27;;;;;;;26.95;41.14;95219.66;4916450;29;20361;-87
2022/09/13 10:28:16;;;;;;;1.20;1.10;;;;;;;26.94;41.34;95220.72;4916588;29;20228;-87
2022/09/13 10:30:48;;;;;;;1.30;1.05;;;;;;;26.87;41.11;95222.94;4915995;29;20742;-88
2022/09/13 10:33:25;;;;;;;1.88;1.17;;;;;;;26.95;41.90;95215.16;4929991;29;20240;-87
2022/09/13 10:35:55;;;;;;;3.05;0.98;;;;;;;26.97;40.43;95213.00;4935537;28;20245;-88
2022/09/13 10:38:29;;;;;;;2.38;1.05;;;;;;;26.99;41.11;95218.00;4936011;29;20201;-88
2022/09/13 10:40:56;;;;;;;1.23;1.05;;;;;;;26.97;40.53;95210.34;4935130;29;20257;-87
2022/09/13 10:43:25;;;;;;;3.17;1.20;;;;;;;26.90;40.65;95217.06;4934430;29;20236;-88
2022/09/13 10:45:53;;;;;;;1.58;1.20;;;;;;;26.91;41.08;95216.78;4934938;28;20237;-87
2022/09/13 10:48:20;;;;;;;2.00;1.20;;;;;;;26.87;40.12;95215.78;4935385;29;20229;-87
2022/09/13 10:51:05;;;;;;;2.78;1.27;;;;;;;26.80;39.75;95207.44;4934763;29;20209;-90
2022/09/13 10:53:36;;;;;;;2.25;1.20;;;;;;;26.75;40.54;95208.28;4935559;29;20228;-88
2022/09/13 10:56:03;;;;;;;3.88;3.53;;;;;;;26.63;40.73;95207.94;4933088;28;20823;-88
2022/09/13 10:58:30;;;;;;;5.88;2.45;;;;;;;26.77;41.77;95210.66;4936214;29;20209;-88
2022/09/13 11:01:37;;;;;;;2.45;1.50;;;;;;;26.76;40.47;95204.56;4934610;29;20206;-87
2022/09/13 11:04:32;;;;;;;1.15;1.08;;;;;;;26.76;41.28;95201.16;4935323;29;20263;-87
2022/09/13 11:07:15;;;;;;;1.17;1.00;;;;;;;26.83;41.95;95199.72;4934498;28;20237;-87
2022/09/13 11:09:51;;;;;;;1.42;1.10;;;;;;;26.94;41.98;95189.00;4935370;29;20221;-88
2022/09/13 11:12:27;;;;;;;2.72;1.13;;;;;;;27.05;41.09;95195.72;4936742;29;20288;-84
2022/09/13 11:15:04;;;;;;;2.28;1.10;;;;;;;26.88;41.27;95190.16;4939818;28;20201;-88
2022/09/13 11:17:55;;;;;;;3.58;1.20;;;;;;;26.78;41.70;95186.59;4934741;29;20213;-90
2022/09/13 11:20:36;;;;;;;1.55;1.10;;;;;;;26.72;41.78;95186.97;4934591;29;20214;-86
2022/09/13 11:23:26;;;;;;;2.25;1.02;;;;;;;26.58;41.32;95197.47;4934607;29;20273;-88
2022/09/13 11:26:09;;;;;;;1.55;1.27;;;;;;;26.62;41.80;95193.19;4934144;28;20237;-87
2022/09/13 11:28:48;;;;;;;1.00;0.90;;;;;;;26.68;41.89;95186.75;4935081;29;20232;-89
2022/09/13 11:31:25;;;;;;;2.78;2.58;;;;;;;26.74;41.23;95190.13;4934682;29;20216;-88
2022/09/13 11:34:11;;;;;;;5.15;3.78;;;;;;;26.68;41.16;95189.41;4934786;29;20232;-87
2022/09/13 11:36:46;;;;;;;3.42;2.58;;;;;;;26.71;41.38;95183.53;4933849;28;20244;-87
2022/09/13 11:39:19;;;;;;;1.67;1.30;;;;;;;26.66;40.80;95175.69;4934887;29;20201;-88
2022/09/13 11:41:58;;;;;;;1.30;0.98;;;;;;;26.46;41.26;95187.34;4934424;29;20296;-87
2022/09/13 11:44:51;;;;;;;1.05;1.05;;;;;;;26.34;42.24;95191.50;4934934;29;20209;-86
2022/09/13 11:47:29;;;;;;;3.03;1.15;;;;;;;26.27;42.76;95183.88;4934083;29;20253;-86
2022/09/13 11:50:23;;;;;;;1.35;1.10;;;;;;;26.23;42.68;95182.88;4934426;29;20732;-88
2022/09/13 11:53:01;;;;;;;2.30;1.10;;;;;;;26.20;43.17;95180.00;4935867;29;20229;-88